Time;durP1;ratioP1;P1;durP2;ratioP2;P2;SDS_P1;SDS_P2;PMS_P1;PMS_P2;Temp;Humidity;BMP_temperature;BMP_pressure;BME280_temperature;BME280_humidity;BME280_pressure;Samples;Min_cycle;Max_cycle;Signal;HPM_P1;HPM_P2
2023/12/14 00:01:18;;;;;;;15.88;9.40;;;;;;;10.60;66.86;100770.13;4754217;29;113279;-72
2023/12/14 00:03:46;;;;;;;15.82;8.55;;;;;;;10.57;66.81;100770.31;4760646;29;115264;-72
2023/12/14 00:06:14;;;;;;;15.73;9.02;;;;;;;10.58;66.95;100787.03;4759348;29;125628;-71
2023/12/14 00:08:41;;;;;;;16.00;8.90;;;;;;;10.55;66.78;100785.41;4751035;29;124235;-73
2023/12/14 00:11:11;;;;;;;17.42;9.52;;;;;;;10.53;66.69;100789.91;4747078;29;114178;-73
2023/12/14 00:13:39;;;;;;;16.05;8.98;;;;;;;10.50;66.83;100790.03;4764070;29;115359;-73
2023/12/14 00:16:07;;;;;;;18.73;9.20;;;;;;;10.47;66.74;100795.47;4747887;29;124287;-73
2023/12/14 00:18:36;;;;;;;17.17;9.75;;;;;;;10.45;66.85;100807.91;4762845;29;124548;-73
2023/12/14 00:21:03;;;;;;;18.90;9.95;;;;;;;10.43;66.83;100809.78;4744637;29;116243;-71
2023/12/14 00:23:31;;;;;;;19.38;8.85;;;;;;;10.40;66.70;100826.69;4758615;29;114986;-71
2023/12/14 00:25:58;;;;;;;16.70;8.60;;;;;;;10.39;66.99;100818.78;4769327;29;124061;-71
2023/12/14 00:28:25;;;;;;;18.00;10.38;;;;;;;10.40;67.05;100825.81;4773553;29;124066;-71
2023/12/14 00:30:57;;;;;;;17.35;9.85;;;;;;;10.38;66.77;100833.84;4779146;29;115221;-71
2023/12/14 00:33:24;;;;;;;16.65;9.82;;;;;;;10.36;66.66;100851.56;4777302;29;115320;-71
2023/12/14 00:35:51;;;;;;;17.42;9.30;;;;;;;10.33;66.82;100847.25;4778747;29;123963;-71
2023/12/14 00:38:18;;;;;;;17.92;9.70;;;;;;;10.30;66.76;100855.34;4770357;29;124044;-71
2023/12/14 00:40:45;;;;;;;18.95;10.13;;;;;;;10.29;66.71;100864.16;4776598;29;115387;-71
2023/12/14 00:43:13;;;;;;;21.23;11.65;;;;;;;10.27;66.72;100868.69;4759017;29;114001;-72
2023/12/14 00:45:41;;;;;;;22.92;11.18;;;;;;;10.25;66.79;100875.81;4760117;29;126402;-71
2023/12/14 00:48:08;;;;;;;19.25;10.23;;;;;;;10.20;66.77;100875.16;4758515;29;125330;-71
2023/12/14 00:50:36;;;;;;;21.17;11.40;;;;;;;10.20;66.80;100887.53;4749997;29;114497;-72
2023/12/14 00:53:03;;;;;;;20.92;11.30;;;;;;;10.18;66.58;100890.25;4781669;29;113795;-71
2023/12/14 00:55:30;;;;;;;19.20;10.20;;;;;;;10.15;66.76;100895.66;4750415;29;124863;-71
2023/12/14 00:57:57;;;;;;;16.83;9.07;;;;;;;10.14;66.78;100904.53;4763017;29;123861;-71
2023/12/14 01:00:24;;;;;;;19.20;10.82;;;;;;;10.13;66.77;100902.81;4777016;29;113737;-72
2023/12/14 01:02:51;;;;;;;19.20;10.38;;;;;;;10.11;66.66;100923.19;4762250;29;114393;-71
2023/12/14 01:05:19;;;;;;;17.33;9.98;;;;;;;10.10;66.68;100924.13;4760951;29;124629;-72
2023/12/14 01:07:46;;;;;;;16.83;10.35;;;;;;;10.09;66.87;100922.38;4774324;29;123735;-72
2023/12/14 01:10:14;;;;;;;18.48;9.98;;;;;;;10.09;66.78;100927.69;4753639;29;115646;-72
2023/12/14 01:12:41;;;;;;;19.10;9.88;;;;;;;10.07;66.82;100924.25;4775806;29;115122;-72
2023/12/14 01:15:08;;;;;;;20.17;10.38;;;;;;;10.05;66.63;100926.09;4755942;29;125034;-72
2023/12/14 01:17:37;;;;;;;16.90;10.15;;;;;;;10.03;66.78;100920.00;4779059;29;124122;-72
2023/12/14 01:20:06;;;;;;;21.38;10.55;;;;;;;10.03;66.96;100927.94;4768750;29;115296;-72
2023/12/14 01:22:34;;;;;;;17.92;10.20;;;;;;;10.02;66.91;100931.50;4773020;29;114764;-72
2023/12/14 01:25:02;;;;;;;20.23;10.93;;;;;;;9.99;66.78;100936.94;4771469;29;124092;-72
2023/12/14 01:27:29;;;;;;;18.13;10.80;;;;;;;9.94;66.77;100940.63;4766593;29;125306;-72
2023/12/14 01:29:56;;;;;;;19.08;10.95;;;;;;;9.92;66.88;100939.81;4751310;29;113353;-72
2023/12/14 01:32:23;;;;;;;22.20;10.77;;;;;;;9.90;67.02;100948.75;4774725;29;112626;-72
2023/12/14 01:34:50;;;;;;;19.45;10.95;;;;;;;9.89;66.85;100944.38;4758874;29;123768;-72
2023/12/14 01:37:17;;;;;;;20.17;11.20;;;;;;;9.87;66.82;100955.03;4782507;29;124511;-72
2023/12/14 01:39:45;;;;;;;20.88;10.70;;;;;;;9.86;66.89;100963.88;4766409;29;114117;-72
2023/12/14 01:42:12;;;;;;;22.88;10.40;;;;;;;9.84;66.91;100978.94;4781589;29;114023;-72
2023/12/14 01:44:39;;;;;;;21.35;10.38;;;;;;;9.81;66.74;100979.06;4780491;29;124215;-72
2023/12/14 01:47:06;;;;;;;17.40;9.38;;;;;;;9.79;66.98;100980.06;4776785;29;126635;-72
2023/12/14 01:49:33;;;;;;;20.90;10.57;;;;;;;9.78;66.80;100989.78;4768071;29;114212;-72
2023/12/14 01:52:01;;;;;;;21.10;9.77;;;;;;;9.78;66.75;100992.44;4776932;29;114278;-72
2023/12/14 01:54:28;;;;;;;17.58;9.48;;;;;;;9.77;66.83;101001.28;4761897;29;123508;-72
2023/12/14 01:56:55;;;;;;;20.77;10.55;;;;;;;9.76;66.71;101004.84;4739732;29;125781;-73
2023/12/14 01:59:22;;;;;;;19.67;10.25;;;;;;;9.75;66.99;101019.84;4776068;29;115173;-73
2023/12/14 02:01:56;;;;;;;17.40;9.15;;;;;;;9.74;66.74;101017.28;4767706;29;114710;-73
2023/12/14 02:04:25;;;;;;;20.00;10.05;;;;;;;9.72;66.59;101024.41;4761536;29;123881;-73
2023/12/14 02:06:52;;;;;;;18.83;9.23;;;;;;;9.71;66.90;101027.97;4757568;29;123653;-73
2023/12/14 02:09:19;;;;;;;20.60;10.35;;;;;;;9.69;66.92;101035.09;4775461;29;115406;-73
2023/12/14 02:11:46;;;;;;;21.40;10.23;;;;;;;9.68;66.79;101038.66;4766300;29;114040;-73
2023/12/14 02:14:14;;;;;;;23.35;10.82;;;;;;;9.67;66.62;101047.53;4776255;29;124062;-73
2023/12/14 02:16:41;;;;;;;24.10;9.63;;;;;;;9.66;67.07;101045.78;4760062;29;124775;-73
2023/12/14 02:19:08;;;;;;;19.60;10.10;;;;;;;9.65;66.74;101038.78;4764646;29;114015;-73
2023/12/14 02:21:35;;;;;;;21.35;9.63;;;;;;;9.64;66.95;101050.28;4775042;29;114582;-73
2023/12/14 02:24:03;;;;;;;22.10;10.48;;;;;;;9.61;66.87;101047.75;4775520;29;125150;-73
2023/12/14 02:26:30;;;;;;;22.38;10.05;;;;;;;9.59;66.81;101049.56;4779292;29;123763;-73
2023/12/14 02:28:57;;;;;;;20.90;9.60;;;;;;;9.59;66.67;101060.16;4757712;29;114245;-74
2023/12/14 02:31:24;;;;;;;26.20;11.02;;;;;;;9.53;66.74;101062.13;4771461;29;114015;-73
2023/12/14 02:33:51;;;;;;;24.90;10.57;;;;;;;9.50;66.79;101062.22;4747256;29;124286;-73
2023/12/14 02:36:19;;;;;;;19.67;9.38;;;;;;;9.49;66.81;101075.50;4759935;29;124728;-73
2023/12/14 02:38:46;;;;;;;23.77;10.55;;;;;;;9.46;66.72;101076.47;4772419;29;118394;-73
2023/12/14 02:41:13;;;;;;;23.13;10.82;;;;;;;9.45;66.78;101080.03;4768310;29;119130;-73
2023/12/14 02:43:40;;;;;;;21.90;10.27;;;;;;;9.46;66.82;101088.84;4773869;29;124318;-73
2023/12/14 02:46:08;;;;;;;20.85;10.13;;;;;;;9.44;66.92;101088.91;4772135;29;125066;-73
2023/12/14 02:48:35;;;;;;;21.50;10.93;;;;;;;9.44;66.80;101093.34;4776260;29;120311;-73
2023/12/14 02:51:03;;;;;;;24.38;11.18;;;;;;;9.44;66.80;101088.91;4771069;29;121235;-73
2023/12/14 02:53:30;;;;;;;20.00;10.70;;;;;;;9.45;66.76;101090.59;4760139;29;123969;-73
2023/12/14 02:56:01;;;;;;;18.95;10.00;;;;;;;9.43;66.86;101092.44;4739617;29;124353;-73
2023/12/14 02:58:28;;;;;;;21.38;11.00;;;;;;;9.43;66.72;101097.72;4766760;29;119966;-73
2023/12/14 03:00:56;;;;;;;18.52;10.23;;;;;;;9.43;66.76;101103.03;4769911;29;118882;-73
2023/12/14 03:03:23;;;;;;;19.65;11.13;;;;;;;9.43;66.75;101116.25;4750272;29;125023;-73
2023/12/14 03:05:50;;;;;;;20.30;10.95;;;;;;;9.41;66.71;101115.44;4769681;29;124595;-73
2023/12/14 03:08:17;;;;;;;18.23;9.95;;;;;;;9.39;66.83;101117.28;4751978;29;119846;-73
2023/12/14 03:10:44;;;;;;;17.45;10.20;;;;;;;9.39;66.78;101130.50;4759648;29;119597;-73
2023/12/14 03:13:11;;;;;;;20.95;11.13;;;;;;;9.39;66.67;101127.84;4747302;29;124832;-73
2023/12/14 03:15:42;;;;;;;18.20;9.77;;;;;;;9.41;66.70;101133.94;4762879;29;124488;-73
2023/12/14 03:18:09;;;;;;;19.15;10.00;;;;;;;9.42;66.81;101142.72;4768998;29;119275;-73
2023/12/14 03:20:37;;;;;;;20.50;10.38;;;;;;;9.42;66.67;101138.31;4764683;29;118083;-73
2023/12/14 03:23:04;;;;;;;19.15;10.38;;;;;;;9.45;66.46;101142.63;4743393;29;124349;-72
2023/12/14 03:25:31;;;;;;;19.05;9.70;;;;;;;9.44;66.65;101146.22;4771911;29;125044;-73
2023/12/14 03:27:58;;;;;;;17.08;10.20;;;;;;;9.45;66.68;101154.06;4774621;29;119120;-73
2023/12/14 03:30:26;;;;;;;16.95;9.88;;;;;;;9.46;66.49;101155.81;4777529;29;118718;-73
2023/12/14 03:32:54;;;;;;;16.88;9.23;;;;;;;9.46;66.55;101155.81;4754931;29;124493;-73
2023/12/14 03:35:22;;;;;;;17.65;10.23;;;;;;;9.46;66.49;101155.81;4771919;29;123617;-73
2023/12/14 03:37:49;;;;;;;16.95;9.25;;;;;;;9.48;66.42;101156.59;4760905;29;119987;-73
2023/12/14 03:40:16;;;;;;;19.33;10.15;;;;;;;9.46;66.67;101155.81;4776365;29;120264;-73
2023/12/14 03:42:43;;;;;;;19.77;10.70;;;;;;;9.45;66.49;101162.00;4765296;29;124169;-73
2023/12/14 03:45:10;;;;;;;18.40;10.20;;;;;;;9.43;66.56;101166.47;4777152;29;123778;-73
2023/12/14 03:47:38;;;;;;;20.30;10.38;;;;;;;9.42;66.57;101175.34;4776011;29;120533;-73
2023/12/14 03:50:06;;;;;;;18.55;10.85;;;;;;;9.41;66.53;101176.25;4772223;29;119338;-73
2023/12/14 03:52:33;;;;;;;18.27;10.52;;;;;;;9.42;66.45;101172.69;4760278;29;123931;-73
2023/12/14 03:55:01;;;;;;;19.10;11.05;;;;;;;9.44;66.45;101184.06;4775812;29;124376;-73
2023/12/14 03:57:28;;;;;;;20.20;10.65;;;;;;;9.42;66.63;101185.03;4776147;29;119298;-73
2023/12/14 03:59:55;;;;;;;18.92;11.18;;;;;;;9.42;66.42;101191.19;4751796;29;119373;-73
2023/12/14 04:02:22;;;;;;;19.55;10.05;;;;;;;9.41;66.55;101192.09;4756465;29;124407;-73
2023/12/14 04:04:49;;;;;;;18.40;10.52;;;;;;;9.40;66.48;101194.78;4776516;29;124652;-73
2023/12/14 04:07:17;;;;;;;19.25;11.25;;;;;;;9.38;66.57;101194.88;4747934;29;118383;-73
2023/12/14 04:09:44;;;;;;;18.67;10.65;;;;;;;9.39;66.31;101195.72;4775940;29;119177;-73
2023/12/14 04:12:11;;;;;;;19.08;10.00;;;;;;;9.39;66.44;101196.56;4760447;29;123295;-73
2023/12/14 04:14:38;;;;;;;20.10;11.10;;;;;;;9.42;66.41;101201.78;4763315;29;123272;-73
2023/12/14 04:17:06;;;;;;;17.38;10.93;;;;;;;9.42;66.51;101201.78;4778499;29;119686;-73
2023/12/14 04:19:33;;;;;;;18.70;10.43;;;;;;;9.44;66.34;101199.94;4760742;29;120418;-73
2023/12/14 04:22:00;;;;;;;20.40;10.55;;;;;;;9.44;66.57;101210.50;4767848;29;123954;-73
2023/12/14 04:24:27;;;;;;;18.40;11.35;;;;;;;9.42;66.42;101207.06;4763266;29;123839;-73
2023/12/14 04:26:54;;;;;;;20.45;11.45;;;;;;;9.42;66.34;101207.06;4779612;29;119226;-73
2023/12/14 04:29:21;;;;;;;17.92;9.98;;;;;;;9.40;66.42;101208.91;4762804;29;121934;-73
2023/12/14 04:31:48;;;;;;;19.48;10.85;;;;;;;9.38;66.41;101209.84;4762631;29;124073;-73
2023/12/14 04:34:17;;;;;;;19.45;10.60;;;;;;;9.38;66.50;101220.41;4768299;29;125144;-73
2023/12/14 04:36:48;;;;;;;18.38;10.95;;;;;;;9.37;66.26;101222.22;4770982;29;119870;-73
2023/12/14 04:39:16;;;;;;;18.42;10.60;;;;;;;9.39;66.48;101216.88;4769601;29;119491;-73
2023/12/14 04:41:44;;;;;;;18.70;10.85;;;;;;;9.39;66.27;101223.00;4744524;29;124099;-73
2023/12/14 04:44:11;;;;;;;18.77;10.75;;;;;;;9.39;66.08;101232.72;4767850;29;124484;-73
2023/12/14 04:46:39;;;;;;;18.35;10.38;;;;;;;9.37;65.92;101230.13;4778458;29;119265;-73
2023/12/14 04:49:06;;;;;;;19.38;10.23;;;;;;;9.36;66.18;101244.25;4749477;29;119463;-73
2023/12/14 04:51:33;;;;;;;18.55;10.55;;;;;;;9.36;66.01;101249.53;4773693;29;124008;-73
2023/12/14 04:54:00;;;;;;;18.08;9.88;;;;;;;9.35;66.12;101261.91;4770978;29;123781;-73
2023/12/14 04:56:27;;;;;;;18.25;10.20;;;;;;;9.36;65.94;101265.41;4744903;29;119849;-73
2023/12/14 04:58:55;;;;;;;19.58;10.57;;;;;;;9.33;65.88;101270.81;4772673;29;119659;-73
2023/12/14 05:01:22;;;;;;;17.90;10.27;;;;;;;9.32;65.87;101279.63;4761697;29;125487;-73
2023/12/14 05:03:49;;;;;;;16.27;10.07;;;;;;;9.32;65.91;101283.16;4779399;29;123838;-73
2023/12/14 05:06:16;;;;;;;19.60;10.65;;;;;;;9.32;65.92;101291.09;4761074;29;120437;-73
2023/12/14 05:08:44;;;;;;;17.13;9.88;;;;;;;9.32;65.80;101295.50;4754572;29;118568;-73
2023/12/14 05:11:14;;;;;;;15.88;10.07;;;;;;;9.33;65.66;101294.59;4773089;29;124012;-73
2023/12/14 05:13:41;;;;;;;15.35;9.57;;;;;;;9.33;65.80;101291.97;4758859;29;123380;-73
2023/12/14 05:16:13;;;;;;;19.10;10.40;;;;;;;9.31;65.67;101299.94;4776042;29;119370;-73
2023/12/14 05:18:40;;;;;;;16.40;9.88;;;;;;;9.31;65.83;101299.06;4762621;29;118207;-73
2023/12/14 05:21:08;;;;;;;18.75;10.18;;;;;;;9.30;65.86;101303.47;4753298;29;125815;-72
2023/12/14 05:23:35;;;;;;;18.17;10.18;;;;;;;9.30;65.96;101313.19;4760220;29;125277;-73
2023/12/14 05:26:02;;;;;;;15.07;9.38;;;;;;;9.29;65.80;101311.47;4778945;29;121358;-73
2023/12/14 05:28:30;;;;;;;13.80;9.00;;;;;;;9.29;65.98;101327.34;4775227;29;119871;-73
2023/12/14 05:30:57;;;;;;;15.32;9.40;;;;;;;9.27;65.95;101329.16;4772798;29;124142;-73
2023/12/14 05:33:24;;;;;;;16.00;9.80;;;;;;;9.26;65.67;101338.00;4757474;29;123947;-73
2023/12/14 05:35:51;;;;;;;14.40;9.15;;;;;;;9.24;65.46;101340.69;4776791;29;119589;-73
2023/12/14 05:38:18;;;;;;;14.07;8.90;;;;;;;9.24;65.76;101350.41;4754786;29;118714;-73
2023/12/14 05:40:46;;;;;;;14.88;8.98;;;;;;;9.22;65.71;101347.78;4768871;29;124544;-73
2023/12/14 05:43:13;;;;;;;16.05;9.43;;;;;;;9.23;65.74;101353.94;4740993;29;125414;-73
2023/12/14 05:45:41;;;;;;;15.50;9.30;;;;;;;9.22;65.80;101357.50;4773314;29;119175;-73
2023/12/14 05:48:08;;;;;;;15.35;9.43;;;;;;;9.22;65.71;101368.94;4766737;29;118900;-73
2023/12/14 05:50:35;;;;;;;14.27;8.80;;;;;;;9.22;65.50;101374.22;4741340;29;122931;-73
2023/12/14 05:53:02;;;;;;;15.63;9.55;;;;;;;9.23;65.67;101386.53;4750345;29;123819;-73
2023/12/14 05:55:30;;;;;;;14.48;9.05;;;;;;;9.23;65.92;101393.59;4771616;29;119959;-73
2023/12/14 05:57:57;;;;;;;14.10;9.52;;;;;;;9.22;65.47;101391.88;4767850;29;118612;-73
2023/12/14 06:00:24;;;;;;;13.98;9.30;;;;;;;9.21;65.48;101398.94;4759740;29;123793;-73
2023/12/14 06:02:51;;;;;;;13.88;9.27;;;;;;;9.21;65.62;101404.22;4770459;29;123906;-73
2023/12/14 06:05:18;;;;;;;14.90;9.35;;;;;;;9.21;65.38;101412.16;4766013;29;120180;-73
2023/12/14 06:07:46;;;;;;;15.80;9.50;;;;;;;9.23;65.76;101422.66;4766082;29;120245;-73
2023/12/14 06:10:13;;;;;;;15.57;9.43;;;;;;;9.24;65.35;101429.69;4765517;29;124067;-73
2023/12/14 06:12:41;;;;;;;15.25;9.73;;;;;;;9.24;65.53;101430.53;4765424;29;123734;-73
2023/12/14 06:15:08;;;;;;;15.90;9.85;;;;;;;9.23;65.46;101427.94;4743634;29;119710;-73
2023/12/14 06:17:38;;;;;;;15.48;9.05;;;;;;;9.24;65.44;101440.25;4765130;29;118042;-73
2023/12/14 06:20:09;;;;;;;16.25;8.55;;;;;;;9.23;65.42;101433.22;4766932;29;123926;-73
2023/12/14 06:22:37;;;;;;;19.20;9.07;;;;;;;9.23;65.66;101443.81;4770122;29;123851;-73
2023/12/14 06:25:05;;;;;;;16.88;8.48;;;;;;;9.22;65.50;101448.22;4768755;29;120435;-73
2023/12/14 06:27:32;;;;;;;15.75;8.55;;;;;;;9.24;65.70;101456.97;4770164;29;118846;-73
2023/12/14 06:29:59;;;;;;;16.77;8.25;;;;;;;9.25;65.46;101463.13;4763896;29;124012;-73
2023/12/14 06:32:26;;;;;;;16.63;8.35;;;;;;;9.25;65.52;101456.06;4769663;29;124265;-73
2023/12/14 06:34:54;;;;;;;15.25;8.27;;;;;;;9.26;65.58;101459.56;4753557;29;119179;-73
2023/12/14 06:37:21;;;;;;;14.32;8.30;;;;;;;9.27;65.34;101461.31;4776623;29;119027;-73
2023/12/14 06:39:48;;;;;;;16.63;9.15;;;;;;;9.27;65.26;101466.59;4770048;29;123864;-73
2023/12/14 06:42:15;;;;;;;15.40;8.90;;;;;;;9.26;65.32;101471.00;4760928;29;125261;-73
2023/12/14 06:44:42;;;;;;;16.25;9.77;;;;;;;9.26;65.42;101475.44;4774778;29;119240;-73
2023/12/14 06:47:09;;;;;;;17.92;9.02;;;;;;;9.23;65.38;101475.50;4772553;29;119836;-73
2023/12/14 06:49:37;;;;;;;19.77;9.65;;;;;;;9.23;65.25;101486.09;4771900;29;124125;-73
2023/12/14 06:52:04;;;;;;;16.00;8.32;;;;;;;9.21;65.39;101495.84;4777086;29;124190;-73
2023/12/14 06:54:31;;;;;;;18.10;8.48;;;;;;;9.19;65.50;101489.72;4752232;29;119767;-73
2023/12/14 06:56:58;;;;;;;16.90;8.77;;;;;;;9.16;65.55;101496.84;4769849;29;120059;-73
2023/12/14 06:59:25;;;;;;;15.95;8.40;;;;;;;9.16;65.57;101496.84;4773486;29;124610;-73
2023/12/14 07:01:52;;;;;;;15.45;8.43;;;;;;;9.16;65.60;101491.56;4734255;29;123855;-73
2023/12/14 07:04:20;;;;;;;17.10;8.30;;;;;;;9.16;65.54;101486.28;4771541;29;119377;-73
2023/12/14 07:06:51;;;;;;;17.27;8.50;;;;;;;9.18;65.35;101488.03;4764272;29;118553;-73
2023/12/14 07:09:19;;;;;;;15.13;7.90;;;;;;;9.20;65.51;101496.78;4757429;29;124915;-73
2023/12/14 07:11:46;;;;;;;12.77;7.10;;;;;;;9.20;65.53;101499.41;4736820;29;125157;-73
2023/12/14 07:14:14;;;;;;;16.70;8.15;;;;;;;9.21;65.24;101509.06;4775110;29;119207;-73
2023/12/14 07:16:42;;;;;;;13.60;7.88;;;;;;;9.20;65.54;101518.78;4748590;29;117998;-73
2023/12/14 07:19:11;;;;;;;14.13;7.60;;;;;;;9.20;65.22;101528.47;4772042;29;123695;-73
2023/12/14 07:21:38;;;;;;;13.85;7.22;;;;;;;9.20;65.47;101533.78;4759052;29;123709;-73
2023/12/14 07:24:05;;;;;;;15.68;7.82;;;;;;;9.19;65.26;101532.03;4774113;29;119444;-73
2023/12/14 07:26:33;;;;;;;11.10;5.35;;;;;;;9.19;65.40;101532.03;4766317;29;119517;-73
2023/12/14 07:29:00;;;;;;;10.98;5.63;;;;;;;9.19;65.28;101542.59;4772854;29;124558;-73
2023/12/14 07:31:28;;;;;;;12.60;5.63;;;;;;;9.18;65.55;101551.44;4770240;29;124557;-73
2023/12/14 07:33:56;;;;;;;12.45;5.38;;;;;;;9.15;65.40;101553.28;4771642;29;119882;-73
2023/12/14 07:36:23;;;;;;;9.95;5.05;;;;;;;9.14;65.45;101551.53;4754374;29;118159;-73
2023/12/14 07:38:51;;;;;;;11.60;5.13;;;;;;;9.14;65.59;101562.09;4775646;29;123245;-73
2023/12/14 07:41:26;;;;;;;11.52;5.28;;;;;;;9.13;65.39;101560.34;4745792;29;124747;-73
2023/12/14 07:43:53;;;;;;;12.23;5.20;;;;;;;9.13;65.40;101568.28;4757531;29;119967;-73
2023/12/14 07:46:21;;;;;;;10.13;4.65;;;;;;;9.12;65.41;101574.47;4751452;29;120570;-73
2023/12/14 07:48:49;;;;;;;9.07;4.43;;;;;;;9.12;65.72;101585.06;4766262;29;126107;-73
2023/12/14 07:51:16;;;;;;;11.15;5.10;;;;;;;9.12;65.53;101587.69;4763952;29;123875;-73
2023/12/14 07:53:43;;;;;;;11.23;4.70;;;;;;;9.12;65.49;101595.63;4766375;29;120678;-73
2023/12/14 07:56:11;;;;;;;9.68;4.75;;;;;;;9.10;65.65;101594.81;4774603;29;118800;-73
2023/12/14 07:58:38;;;;;;;10.20;4.10;;;;;;;9.09;65.54;101600.13;4771648;29;124243;-73
2023/12/14 08:01:05;;;;;;;10.63;4.97;;;;;;;9.09;65.58;101606.25;4768069;29;125155;-73
2023/12/14 08:03:33;;;;;;;9.15;4.40;;;;;;;9.08;65.66;101607.19;4767146;29;118921;-73
2023/12/14 08:06:00;;;;;;;13.30;5.55;;;;;;;9.08;65.47;101620.41;4766780;29;117923;-73
2023/12/14 08:08:28;;;;;;;11.32;4.90;;;;;;;9.07;65.50;101623.94;4773915;29;125136;-73
2023/12/14 08:10:55;;;;;;;8.10;4.68;;;;;;;9.07;65.37;101626.56;4763574;29;124611;-73
2023/12/14 08:13:22;;;;;;;8.95;4.97;;;;;;;9.08;65.36;101636.25;4743864;29;120560;-74
2023/12/14 08:15:50;;;;;;;13.48;4.90;;;;;;;9.07;65.67;101639.78;4756950;29;120054;-73
2023/12/14 08:18:17;;;;;;;9.40;4.50;;;;;;;9.06;65.52;101635.44;4752310;29;125308;-74
2023/12/14 08:20:45;;;;;;;9.50;5.00;;;;;;;9.08;65.58;101646.81;4769871;29;124553;-73
2023/12/14 08:23:12;;;;;;;10.05;5.13;;;;;;;9.07;65.19;101650.38;4772396;29;117321;-74
2023/12/14 08:25:39;;;;;;;10.30;4.45;;;;;;;9.09;65.61;101661.75;4767276;29;118764;-73
2023/12/14 08:28:06;;;;;;;10.45;4.38;;;;;;;9.09;65.37;101659.13;4771605;29;124753;-73
2023/12/14 08:30:33;;;;;;;8.43;4.40;;;;;;;9.11;65.57;101667.00;4766773;29;123604;-73
2023/12/14 08:33:01;;;;;;;10.38;4.63;;;;;;;9.11;65.41;101667.00;4748781;29;120179;-74
2023/12/14 08:35:28;;;;;;;8.95;4.60;;;;;;;9.12;65.45;101659.06;4757188;29;119412;-73
2023/12/14 08:37:55;;;;;;;8.23;4.28;;;;;;;9.11;65.49;101667.88;4769631;29;124035;-74
2023/12/14 08:40:22;;;;;;;9.05;4.53;;;;;;;9.12;65.29;101674.91;4769357;29;124006;-74
2023/12/14 08:42:50;;;;;;;9.50;4.50;;;;;;;9.12;65.46;101674.03;4768692;29;120217;-74
2023/12/14 08:45:17;;;;;;;10.40;4.68;;;;;;;9.13;65.30;101681.06;4772920;29;119596;-74
2023/12/14 08:47:44;;;;;;;8.82;4.25;;;;;;;9.13;65.43;101686.34;4769581;29;123778;-74
2023/12/14 08:50:12;;;;;;;9.93;4.20;;;;;;;9.14;65.27;101688.94;4774364;29;124521;-74
2023/12/14 08:52:39;;;;;;;8.13;3.72;;;;;;;9.13;65.10;101692.47;4771247;29;119020;-74
2023/12/14 08:55:08;;;;;;;10.65;4.78;;;;;;;9.11;65.01;101699.59;4754613;29;120175;-74
2023/12/14 08:57:35;;;;;;;8.77;3.97;;;;;;;9.08;65.10;101702.31;4758979;29;125508;-74
2023/12/14 09:00:04;;;;;;;11.65;4.45;;;;;;;9.06;65.14;101701.50;4775482;29;124671;-74
2023/12/14 09:02:32;;;;;;;8.32;3.85;;;;;;;9.03;65.19;101712.13;4746116;29;118537;-74
2023/12/14 09:05:00;;;;;;;11.82;4.18;;;;;;;9.01;65.29;101719.22;4771195;29;119750;-73
2023/12/14 09:07:27;;;;;;;11.60;4.40;;;;;;;8.99;65.25;101715.75;4769768;29;124378;-75
2023/12/14 09:09:54;;;;;;;8.60;4.47;;;;;;;8.98;65.17;101724.56;4754166;29;124572;-74
2023/12/14 09:12:21;;;;;;;8.68;3.97;;;;;;;8.96;65.10;101737.81;4767150;29;119484;-74
2023/12/14 09:14:49;;;;;;;9.38;3.63;;;;;;;8.94;65.08;101736.13;4775505;29;120160;-74
2023/12/14 09:17:16;;;;;;;8.75;3.85;;;;;;;8.92;65.15;101746.72;4769664;29;123657;-74
2023/12/14 09:19:43;;;;;;;9.38;3.65;;;;;;;8.91;65.24;101744.13;4776078;29;123851;-74
2023/12/14 09:22:10;;;;;;;9.02;3.83;;;;;;;8.89;65.09;101745.94;4771867;29;120099;-72
2023/12/14 09:24:37;;;;;;;12.40;4.25;;;;;;;8.90;65.34;101742.38;4756814;29;119578;-72
2023/12/14 09:27:04;;;;;;;9.23;3.88;;;;;;;8.91;65.28;101749.41;4773157;29;123779;-72
2023/12/14 09:29:31;;;;;;;7.43;3.85;;;;;;;8.91;65.17;101757.31;4773660;29;124735;-72
2023/12/14 09:31:59;;;;;;;10.48;4.63;;;;;;;8.91;65.21;101759.97;4776620;29;120276;-72
2023/12/14 09:34:26;;;;;;;9.05;4.03;;;;;;;8.90;65.30;101774.09;4750637;29;118756;-72
2023/12/14 09:36:53;;;;;;;9.38;4.32;;;;;;;8.89;64.99;101778.53;4761107;29;124653;-71
2023/12/14 09:39:23;;;;;;;6.80;3.75;;;;;;;8.87;65.05;101779.44;4766870;29;126295;-72
2023/12/14 09:41:51;;;;;;;6.88;3.58;;;;;;;8.85;65.20;101784.75;4759614;29;120330;-72
2023/12/14 09:44:18;;;;;;;9.40;4.05;;;;;;;8.85;65.22;101791.81;4738534;29;119085;-72
2023/12/14 09:46:49;;;;;;;12.32;4.40;;;;;;;8.85;65.29;101791.81;4768922;29;125299;-72
2023/12/14 09:49:18;;;;;;;9.75;3.83;;;;;;;8.84;65.12;101795.38;4744749;29;124935;-72
2023/12/14 09:51:46;;;;;;;8.63;3.60;;;;;;;8.83;65.55;101793.63;4747090;29;119291;-72
2023/12/14 09:54:13;;;;;;;7.45;3.83;;;;;;;8.84;65.13;101805.94;4762724;29;120658;-72
2023/12/14 09:56:47;;;;;;;9.95;4.45;;;;;;;8.84;65.05;101806.81;4767698;29;124145;-72
2023/12/14 09:59:15;;;;;;;10.43;4.05;;;;;;;8.83;65.26;101810.34;4770029;29;124690;-71
2023/12/14 10:01:42;;;;;;;8.27;4.22;;;;;;;8.82;65.21;101807.75;4750167;29;120130;-72
2023/12/14 10:04:14;;;;;;;9.07;3.92;;;;;;;8.83;65.24;101814.75;4770730;29;118998;-72
2023/12/14 10:06:43;;;;;;;8.05;3.75;;;;;;;8.82;64.95;101823.59;4751583;29;123065;-75
2023/12/14 10:09:13;;;;;;;9.32;4.10;;;;;;;8.82;64.88;101823.59;4768101;29;124838;-73
2023/12/14 10:11:42;;;;;;;10.50;4.50;;;;;;;8.82;65.06;101834.16;4752236;29;118352;-73
2023/12/14 10:14:20;;;;;;;8.70;4.65;;;;;;;8.82;65.11;101839.44;4751352;29;119810;-73
2023/12/14 10:16:49;;;;;;;10.55;4.70;;;;;;;8.82;65.02;101844.72;4769463;29;123933;-73
2023/12/14 10:19:18;;;;;;;10.70;4.75;;;;;;;8.84;65.16;101853.50;4772132;29;124168;-73
2023/12/14 10:21:47;;;;;;;9.10;4.57;;;;;;;8.85;65.19;101849.94;4763951;29;119915;-73
2023/12/14 10:24:14;;;;;;;10.25;4.63;;;;;;;8.86;64.99;101856.97;4766289;29;118376;-73
2023/12/14 10:26:47;;;;;;;10.13;4.43;;;;;;;8.88;65.07;101852.50;4761259;29;125052;-73
2023/12/14 10:29:15;;;;;;;8.60;4.72;;;;;;;8.88;65.05;101855.16;4773773;29;123521;-73
2023/12/14 10:31:43;;;;;;;9.82;4.85;;;;;;;8.87;65.19;101856.03;4770932;29;119040;-73
2023/12/14 10:34:12;;;;;;;11.25;4.72;;;;;;;8.88;65.05;101860.44;4770638;29;119475;-73
2023/12/14 10:36:43;;;;;;;7.90;4.10;;;;;;;8.91;64.84;101870.91;4774276;29;124016;-73
2023/12/14 10:39:15;;;;;;;8.45;4.43;;;;;;;8.94;64.96;101878.78;4753846;29;123842;-73
2023/12/14 10:41:47;;;;;;;9.48;4.47;;;;;;;8.95;64.85;101872.63;4747267;29;119209;-73
2023/12/14 10:44:25;;;;;;;7.63;3.75;;;;;;;8.97;65.02;101881.38;4756568;29;119134;-73
2023/12/14 10:47:15;;;;;;;8.80;4.10;;;;;;;8.96;65.12;101879.63;4776682;29;123680;-73
2023/12/14 10:49:48;;;;;;;9.18;4.10;;;;;;;8.96;64.67;101879.63;4755573;29;124960;-73
2023/12/14 10:52:18;;;;;;;8.27;4.05;;;;;;;8.94;64.74;101892.00;4767819;29;120409;-73
2023/12/14 10:54:49;;;;;;;9.43;4.05;;;;;;;8.93;64.63;101891.16;4767665;29;120493;-72
2023/12/14 10:57:16;;;;;;;8.57;3.83;;;;;;;8.93;64.36;101892.94;4758894;29;124938;-73
2023/12/14 10:59:43;;;;;;;7.57;3.65;;;;;;;8.90;64.49;101880.63;4770671;29;124374;-73
2023/12/14 11:02:11;;;;;;;8.20;4.03;;;;;;;8.90;64.72;101877.13;4745848;29;121335;-73
2023/12/14 11:04:58;;;;;;;9.20;4.72;;;;;;;8.89;64.45;101878.00;4754274;29;120552;-73
2023/12/14 11:07:44;;;;;;;9.48;4.55;;;;;;;8.88;64.58;101869.22;4763775;29;124303;-73
2023/12/14 11:10:12;;;;;;;8.98;4.55;;;;;;;8.89;64.57;101872.72;4769849;29;125200;-73
2023/12/14 11:13:02;;;;;;;8.25;4.75;;;;;;;8.91;64.62;101884.13;4770853;29;119186;-73
2023/12/14 11:15:33;;;;;;;8.02;4.22;;;;;;;8.94;64.43;101889.38;4756451;29;117904;-73
2023/12/14 11:18:12;;;;;;;8.55;4.20;;;;;;;8.96;64.48;101898.13;4752495;29;123766;-73